Time;durP1;ratioP1;P1;durP2;ratioP2;P2;SDS_P1;SDS_P2;PMS_P1;PMS_P2;Temp;Humidity;BMP_temperature;BMP_pressure;BME280_temperature;BME280_humidity;BME280_pressure;Samples;Min_cycle;Max_cycle;Signal;HPM_P1;HPM_P2
2024/01/26 00:01:03;;;;;;;37.97;23.50;;;10.50;99.90;;;;;;5031466;28;20121;-84
2024/01/26 00:03:29;;;;;;;36.20;23.65;;;10.50;99.90;;;;;;5032620;28;20026;-83
2024/01/26 00:05:55;;;;;;;35.58;23.50;;;10.50;99.90;;;;;;5030719;28;20037;-83
2024/01/26 00:08:20;;;;;;;37.80;24.65;;;10.50;99.90;;;;;;5032464;28;20045;-83
2024/01/26 00:10:46;;;;;;;39.85;25.15;;;10.50;99.90;;;;;;5032433;28;20544;-83
2024/01/26 00:13:13;;;;;;;37.38;23.63;;;10.50;99.90;;;;;;5031331;28;20056;-83
2024/01/26 00:15:40;;;;;;;37.67;24.40;;;10.50;99.90;;;;;;5031419;28;20033;-83
2024/01/26 00:18:05;;;;;;;39.42;25.38;;;10.50;99.90;;;;;;5031363;28;20080;-83
2024/01/26 00:20:31;;;;;;;37.30;24.75;;;10.50;99.90;;;;;;5036097;28;20501;-83
2024/01/26 00:22:57;;;;;;;39.50;26.50;;;10.50;99.90;;;;;;5036298;28;20025;-84
2024/01/26 00:25:25;;;;;;;35.97;23.08;;;10.50;99.90;;;;;;5036274;28;20083;-83
2024/01/26 00:27:51;;;;;;;38.07;24.10;;;10.50;99.90;;;;;;5036386;28;20029;-83
2024/01/26 00:30:17;;;;;;;32.33;22.35;;;10.60;99.90;;;;;;5036079;28;20096;-84
2024/01/26 00:32:43;;;;;;;39.05;24.98;;;10.50;99.90;;;;;;5034411;28;20038;-84
2024/01/26 00:35:10;;;;;;;35.70;23.70;;;10.50;99.90;;;;;;5034823;28;20041;-84
2024/01/26 00:37:35;;;;;;;39.55;24.02;;;10.60;99.90;;;;;;5034432;28;20080;-83
2024/01/26 00:40:01;;;;;;;37.90;24.48;;;10.50;99.90;;;;;;5035915;28;20428;-84
2024/01/26 00:42:27;;;;;;;33.03;22.75;;;10.50;99.90;;;;;;5034782;28;20014;-83
2024/01/26 00:44:55;;;;;;;36.70;23.65;;;10.50;99.90;;;;;;5035871;28;20026;-84
2024/01/26 00:47:21;;;;;;;32.92;21.05;;;10.60;99.90;;;;;;5034106;28;20084;-84
2024/01/26 00:49:47;;;;;;;33.72;23.15;;;10.60;99.90;;;;;;5035950;28;20029;-84
2024/01/26 00:52:13;;;;;;;38.93;24.13;;;10.60;99.90;;;;;;5034967;28;20362;-84
2024/01/26 00:54:38;;;;;;;34.95;22.40;;;10.60;99.90;;;;;;5035653;28;20029;-84
2024/01/26 00:57:04;;;;;;;38.28;24.55;;;10.60;99.90;;;;;;5035788;28;20367;-84
2024/01/26 00:59:30;;;;;;;34.33;23.58;;;10.60;99.90;;;;;;5034700;28;20124;-84
2024/01/26 01:01:57;;;;;;;33.95;22.80;;;10.60;99.90;;;;;;5034293;28;20537;-84
2024/01/26 01:04:24;;;;;;;39.60;24.48;;;10.60;99.90;;;;;;5034275;28;20032;-85
2024/01/26 01:06:52;;;;;;;35.80;24.47;;;10.60;99.90;;;;;;5034069;28;20033;-85
2024/01/26 01:09:18;;;;;;;37.60;23.07;;;10.60;99.90;;;;;;5034164;28;20034;-84
2024/01/26 01:11:43;;;;;;;34.85;22.80;;;10.60;99.90;;;;;;5034299;28;20495;-85
2024/01/26 01:14:09;;;;;;;33.70;22.05;;;10.60;99.90;;;;;;5034137;28;20013;-84
2024/01/26 01:16:35;;;;;;;36.85;25.25;;;10.60;99.90;;;;;;5035230;28;20527;-85
2024/01/26 01:19:00;;;;;;;37.80;23.40;;;10.60;99.90;;;;;;5033549;28;20026;-85
2024/01/26 01:21:26;;;;;;;36.63;24.55;;;10.60;99.90;;;;;;5033953;28;20075;-84
2024/01/26 01:23:52;;;;;;;35.92;23.02;;;10.60;99.90;;;;;;5035342;28;20029;-84
2024/01/26 01:26:18;;;;;;;37.50;21.88;;;10.60;99.90;;;;;;5035260;28;20417;-84
2024/01/26 01:28:44;;;;;;;33.33;22.80;;;10.60;99.90;;;;;;5035094;28;20033;-85
2024/01/26 01:31:10;;;;;;;34.08;21.80;;;10.60;99.90;;;;;;5034476;28;20499;-83
2024/01/26 01:33:36;;;;;;;34.07;22.10;;;10.60;99.90;;;;;;5033269;28;20049;-85
2024/01/26 01:36:02;;;;;;;28.65;20.15;;;10.60;99.90;;;;;;5033718;28;20052;-84
2024/01/26 01:38:28;;;;;;;35.53;21.58;;;10.60;99.90;;;;;;5033513;28;20543;-85
2024/01/26 01:40:53;;;;;;;32.15;23.55;;;10.60;99.90;;;;;;5035051;28;20030;-84
2024/01/26 01:43:19;;;;;;;32.92;22.05;;;10.60;99.90;;;;;;5033576;28;20017;-84
2024/01/26 01:45:45;;;;;;;30.77;21.10;;;10.60;99.90;;;;;;5035034;28;20021;-84
2024/01/26 01:48:11;;;;;;;34.72;21.85;;;10.60;99.90;;;;;;5033497;28;20041;-85
2024/01/26 01:50:37;;;;;;;31.15;20.05;;;10.60;99.90;;;;;;5034180;28;20022;-84
2024/01/26 01:53:07;;;;;;;28.33;18.90;;;10.70;99.90;;;;;;5033552;28;20104;-85
2024/01/26 01:55:34;;;;;;;29.85;19.38;;;10.60;99.90;;;;;;5034578;28;20025;-84
2024/01/26 01:57:59;;;;;;;31.48;20.25;;;10.60;99.90;;;;;;5033379;28;20032;-85
2024/01/26 02:00:25;;;;;;;28.95;19.27;;;10.70;99.90;;;;;;5033357;28;20022;-84
2024/01/26 02:02:53;;;;;;;33.22;20.05;;;10.60;99.90;;;;;;5034099;28;20025;-84
2024/01/26 02:05:18;;;;;;;28.40;20.23;;;10.70;99.90;;;;;;5032722;28;20043;-84
2024/01/26 02:07:51;;;;;;;31.95;20.60;;;10.70;99.90;;;;;;5032855;28;20084;-85
2024/01/26 02:10:17;;;;;;;26.50;18.27;;;10.70;99.90;;;;;;5034383;28;20022;-85
2024/01/26 02:12:42;;;;;;;29.38;19.25;;;10.70;99.90;;;;;;5032916;28;20496;-85
2024/01/26 02:15:10;;;;;;;29.17;20.02;;;10.70;99.90;;;;;;5034252;28;20379;-85
2024/01/26 02:17:36;;;;;;;30.13;20.20;;;10.70;99.90;;;;;;5032781;28;20021;-84
2024/01/26 02:20:06;;;;;;;27.80;19.83;;;10.70;99.90;;;;;;5034456;28;20029;-84
2024/01/26 02:22:32;;;;;;;27.55;19.10;;;10.70;99.90;;;;;;5034070;28;20496;-84
2024/01/26 02:24:58;;;;;;;28.58;18.33;;;10.70;99.90;;;;;;5032709;28;20083;-84
2024/01/26 02:27:24;;;;;;;28.42;19.17;;;10.70;99.90;;;;;;5032463;28;20124;-84
2024/01/26 02:29:50;;;;;;;25.63;17.48;;;10.70;99.90;;;;;;5033836;28;20026;-84
2024/01/26 02:32:15;;;;;;;24.77;16.83;;;10.70;99.90;;;;;;5033235;28;20047;-84
2024/01/26 02:34:41;;;;;;;24.98;16.65;;;10.70;99.90;;;;;;5032507;28;20017;-85
2024/01/26 02:37:09;;;;;;;25.75;17.00;;;10.70;99.90;;;;;;5033626;28;20470;-85
2024/01/26 02:39:35;;;;;;;24.15;16.88;;;10.70;99.90;;;;;;5032655;28;20026;-84
2024/01/26 02:42:00;;;;;;;27.63;16.92;;;10.70;99.90;;;;;;5033276;28;20433;-84
2024/01/26 02:44:26;;;;;;;25.50;16.65;;;10.70;99.90;;;;;;5033874;28;20381;-85
2024/01/26 02:46:52;;;;;;;24.48;16.10;;;10.70;99.90;;;;;;5032488;28;20029;-83
2024/01/26 02:49:18;;;;;;;23.10;15.75;;;10.70;99.90;;;;;;5033425;28;20032;-84
2024/01/26 02:51:43;;;;;;;23.83;16.07;;;10.70;99.90;;;;;;5033566;28;20018;-84
2024/01/26 02:54:09;;;;;;;19.65;14.25;;;10.70;99.90;;;;;;5032242;28;20022;-84
2024/01/26 02:56:35;;;;;;;22.08;14.73;;;10.70;99.90;;;;;;5033377;28;20056;-85
2024/01/26 02:59:00;;;;;;;23.73;14.68;;;10.70;99.90;;;;;;5032358;28;20029;-84
2024/01/26 03:01:26;;;;;;;18.63;13.63;;;10.70;99.90;;;;;;5033201;28;20386;-85
2024/01/26 03:03:51;;;;;;;20.73;12.35;;;10.70;99.90;;;;;;5032065;28;20029;-84
2024/01/26 03:06:18;;;;;;;19.75;13.55;;;10.70;99.90;;;;;;5031897;28;20017;-83
2024/01/26 03:08:43;;;;;;;18.23;12.23;;;10.70;99.90;;;;;;5033277;28;20392;-83
2024/01/26 03:11:12;;;;;;;16.15;10.45;;;10.70;99.90;;;;;;5032245;28;20104;-84
2024/01/26 03:13:39;;;;;;;17.10;11.02;;;10.80;99.90;;;;;;5032061;28;20041;-83
2024/01/26 03:16:05;;;;;;;13.50;9.23;;;10.80;99.90;;;;;;5033169;28;20026;-84
2024/01/26 03:18:31;;;;;;;13.48;8.60;;;10.80;99.90;;;;;;5031892;28;20098;-85
2024/01/26 03:20:57;;;;;;;15.50;9.35;;;10.80;99.90;;;;;;5031682;28;20029;-85
2024/01/26 03:23:22;;;;;;;12.65;8.13;;;10.80;99.90;;;;;;5033275;28;20037;-84
2024/01/26 03:25:48;;;;;;;15.90;9.20;;;10.80;99.90;;;;;;5031856;28;20021;-83
2024/01/26 03:28:14;;;;;;;13.85;8.63;;;10.80;99.90;;;;;;5032951;28;20025;-84
2024/01/26 03:30:40;;;;;;;12.63;9.13;;;10.80;99.90;;;;;;5032859;28;20064;-85
2024/01/26 03:33:07;;;;;;;15.13;8.85;;;10.80;99.90;;;;;;5032548;28;20049;-84
2024/01/26 03:35:32;;;;;;;14.93;8.80;;;10.80;99.90;;;;;;5033316;28;20457;-84
2024/01/26 03:37:58;;;;;;;12.23;7.88;;;10.90;99.90;;;;;;5031945;28;20079;-85
2024/01/26 03:40:24;;;;;;;14.00;8.25;;;10.90;99.90;;;;;;5031962;28;20083;-85
2024/01/26 03:42:51;;;;;;;12.68;8.07;;;10.90;99.90;;;;;;5031748;28;20025;-84
2024/01/26 03:45:17;;;;;;;14.00;8.32;;;10.90;99.90;;;;;;5033082;28;20457;-84
2024/01/26 03:47:42;;;;;;;15.95;8.07;;;10.90;99.90;;;;;;5032793;28;20029;-85
2024/01/26 03:50:09;;;;;;;11.80;7.47;;;10.90;99.90;;;;;;5031505;28;20021;-84
2024/01/26 03:52:34;;;;;;;14.07;7.60;;;10.90;99.90;;;;;;5034020;28;20017;-85
2024/01/26 03:55:01;;;;;;;11.77;7.47;;;10.90;99.90;;;;;;5035463;28;20371;-85
2024/01/26 03:57:27;;;;;;;11.32;6.82;;;11.00;99.90;;;;;;5035473;28;20025;-85
2024/01/26 03:59:52;;;;;;;11.45;6.50;;;10.90;99.90;;;;;;5035613;28;20393;-84
2024/01/26 04:02:18;;;;;;;9.90;5.93;;;11.00;99.90;;;;;;5035298;28;20029;-83
2024/01/26 04:04:45;;;;;;;12.95;6.57;;;11.00;99.90;;;;;;5035589;28;20021;-85
2024/01/26 04:07:11;;;;;;;11.52;6.15;;;10.90;99.90;;;;;;5035386;28;20041;-85
2024/01/26 04:09:37;;;;;;;10.02;6.47;;;11.00;99.90;;;;;;5036653;28;20021;-85
2024/01/26 04:12:04;;;;;;;9.63;5.95;;;11.00;99.90;;;;;;5036684;28;20511;-85
2024/01/26 04:14:29;;;;;;;11.15;5.68;;;10.90;99.90;;;;;;5035423;28;20116;-85
2024/01/26 04:16:55;;;;;;;8.57;5.40;;;11.00;99.90;;;;;;5035571;28;20049;-85
2024/01/26 04:19:21;;;;;;;8.57;5.30;;;11.00;99.90;;;;;;5035233;28;20067;-85
2024/01/26 04:21:49;;;;;;;10.07;5.18;;;11.00;99.90;;;;;;5034892;28;20409;-85
2024/01/26 04:24:15;;;;;;;9.93;5.47;;;11.00;99.90;;;;;;5035069;28;20025;-83
2024/01/26 04:26:45;;;;;;;11.50;5.95;;;11.00;99.90;;;;;;5034745;28;20500;-85
2024/01/26 04:29:11;;;;;;;9.07;5.03;;;11.00;99.90;;;;;;5034796;28;20426;-85
2024/01/26 04:31:43;;;;;;;9.88;5.97;;;11.10;99.90;;;;;;5035402;28;20041;-82
2024/01/26 04:34:11;;;;;;;7.97;5.20;;;11.10;99.90;;;;;;5034607;28;20022;-83
2024/01/26 04:36:36;;;;;;;11.32;5.05;;;11.10;99.90;;;;;;5035106;28;20486;-82
2024/01/26 04:39:02;;;;;;;8.70;5.05;;;11.00;99.90;;;;;;5035888;28;20119;-86
2024/01/26 04:41:28;;;;;;;8.40;4.95;;;11.10;99.90;;;;;;5035889;28;20029;-83
2024/01/26 04:43:55;;;;;;;9.57;4.68;;;11.10;99.90;;;;;;5035658;28;20022;-83
2024/01/26 04:46:20;;;;;;;9.23;5.25;;;11.10;99.90;;;;;;5035780;28;20021;-82
2024/01/26 04:48:46;;;;;;;10.18;5.80;;;11.10;99.90;;;;;;5035899;28;20520;-83
2024/01/26 04:51:12;;;;;;;7.07;4.43;;;11.10;99.90;;;;;;5034635;28;20393;-83
2024/01/26 04:53:37;;;;;;;9.02;5.18;;;11.10;99.90;;;;;;5034061;28;20030;-82
2024/01/26 04:56:03;;;;;;;8.35;4.80;;;11.10;99.90;;;;;;5035772;28;20030;-83
2024/01/26 04:58:29;;;;;;;9.45;5.60;;;11.10;99.90;;;;;;5035898;28;20029;-82
2024/01/26 05:00:54;;;;;;;7.03;4.75;;;11.10;99.90;;;;;;5035334;28;20032;-82
2024/01/26 05:03:20;;;;;;;8.32;5.35;;;11.10;99.90;;;;;;5035592;28;20486;-83
2024/01/26 05:05:46;;;;;;;8.43;4.72;;;11.20;99.90;;;;;;5033469;28;20021;-82
2024/01/26 05:08:11;;;;;;;8.07;4.90;;;11.20;99.90;;;;;;5035315;28;20029;-82
2024/01/26 05:10:37;;;;;;;8.95;5.30;;;11.10;99.90;;;;;;5033900;28;20500;-82
2024/01/26 05:13:03;;;;;;;13.02;5.75;;;11.20;99.90;;;;;;5034614;28;20063;-82
2024/01/26 05:15:28;;;;;;;13.45;6.95;;;11.20;99.90;;;;;;5035167;28;20032;-81
2024/01/26 05:17:54;;;;;;;8.50;5.68;;;11.20;99.90;;;;;;5033959;28;20025;-82
2024/01/26 05:20:19;;;;;;;9.30;5.50;;;11.20;99.90;;;;;;5020589;28;20037;-82
2024/01/26 05:22:46;;;;;;;11.18;5.97;;;11.20;99.90;;;;;;5015442;28;20030;-82
2024/01/26 05:25:11;;;;;;;11.13;6.50;;;11.20;99.90;;;;;;5013470;28;20030;-83
2024/01/26 05:27:39;;;;;;;12.07;6.38;;;11.20;99.90;;;;;;5013888;28;20502;-83
2024/01/26 05:30:06;;;;;;;11.15;6.93;;;11.20;99.90;;;;;;5013913;28;20030;-83
2024/01/26 05:32:31;;;;;;;10.80;6.70;;;11.20;99.90;;;;;;5012947;28;20053;-82
2024/01/26 05:34:57;;;;;;;12.38;7.18;;;11.20;99.90;;;;;;5015326;28;20556;-82
2024/01/26 05:37:23;;;;;;;10.80;6.35;;;11.20;99.90;;;;;;5015041;28;20543;-82
2024/01/26 05:39:48;;;;;;;11.60;8.05;;;11.20;99.90;;;;;;5015137;28;20088;-82
2024/01/26 05:42:14;;;;;;;14.32;7.40;;;11.20;99.90;;;;;;5014975;28;20026;-82
2024/01/26 05:44:39;;;;;;;14.95;7.97;;;11.20;99.90;;;;;;5013041;28;20034;-81
2024/01/26 05:47:05;;;;;;;12.57;7.50;;;11.20;99.90;;;;;;5015099;28;20414;-84
2024/01/26 05:49:31;;;;;;;12.25;7.25;;;11.20;99.90;;;;;;5013627;28;20482;-84
2024/01/26 05:51:56;;;;;;;12.50;7.72;;;11.30;99.90;;;;;;5013649;28;20467;-81
2024/01/26 05:54:22;;;;;;;12.95;7.57;;;11.30;99.90;;;;;;5015124;28;20018;-83
2024/01/26 05:56:47;;;;;;;13.00;7.70;;;11.30;99.90;;;;;;5030122;28;20478;-83
2024/01/26 05:59:13;;;;;;;13.07;9.07;;;11.20;99.90;;;;;;5014457;28;20028;-83
2024/01/26 06:01:39;;;;;;;13.07;7.85;;;11.20;99.90;;;;;;5013399;28;20371;-83
2024/01/26 06:04:05;;;;;;;14.75;9.32;;;11.20;99.90;;;;;;5014731;28;20022;-84
2024/01/26 06:06:32;;;;;;;14.02;8.23;;;11.10;99.90;;;;;;5013222;28;20478;-83
2024/01/26 06:08:58;;;;;;;15.23;9.88;;;11.20;99.90;;;;;;5014610;28;20470;-84
2024/01/26 06:11:25;;;;;;;18.33;9.50;;;11.10;99.90;;;;;;5013183;28;20022;-83
2024/01/26 06:13:51;;;;;;;14.27;9.23;;;11.10;99.90;;;;;;5014995;28;20548;-84
2024/01/26 06:16:17;;;;;;;15.55;10.23;;;11.10;99.90;;;;;;5014438;28;20044;-84
2024/01/26 06:18:45;;;;;;;17.45;10.48;;;11.00;99.90;;;;;;5014962;28;20101;-83
2024/01/26 06:21:11;;;;;;;16.60;11.27;;;11.00;99.90;;;;;;5013287;28;20096;-82
2024/01/26 06:23:38;;;;;;;16.58;10.98;;;11.00;99.90;;;;;;5013996;28;20057;-82
2024/01/26 06:26:04;;;;;;;18.95;11.23;;;10.90;99.90;;;;;;5013372;28;20021;-82
2024/01/26 06:28:29;;;;;;;18.13;11.73;;;10.80;99.90;;;;;;5020292;28;20040;-84
2024/01/26 06:30:55;;;;;;;19.15;11.60;;;10.80;99.90;;;;;;5029681;28;20381;-82
2024/01/26 06:33:20;;;;;;;20.73;11.65;;;10.70;99.90;;;;;;5033233;28;20030;-82
2024/01/26 06:35:46;;;;;;;21.75;12.07;;;10.70;99.90;;;;;;5025637;28;20512;-82
2024/01/26 06:38:12;;;;;;;24.52;12.43;;;10.60;99.90;;;;;;5026249;28;20025;-83
2024/01/26 06:40:39;;;;;;;18.33;12.27;;;10.60;99.90;;;;;;5030772;28;20543;-83
2024/01/26 06:43:07;;;;;;;21.98;12.48;;;10.60;99.90;;;;;;5027709;28;20421;-82
2024/01/26 06:45:33;;;;;;;16.93;11.43;;;10.50;99.90;;;;;;5027564;28;20137;-81
2024/01/26 06:47:59;;;;;;;18.10;11.07;;;10.50;99.90;;;;;;5015859;28;20034;-82
2024/01/26 06:50:25;;;;;;;19.77;11.32;;;10.50;99.90;;;;;;5031263;28;20044;-83
2024/01/26 06:52:50;;;;;;;19.17;12.65;;;10.50;99.90;;;;;;5019073;28;20476;-81
2024/01/26 06:55:16;;;;;;;16.00;10.27;;;10.40;99.90;;;;;;5012803;28;20026;-83
2024/01/26 06:57:42;;;;;;;21.23;12.30;;;10.40;99.90;;;;;;5016159;28;20423;-82
2024/01/26 07:00:09;;;;;;;17.75;11.70;;;10.40;99.90;;;;;;5014521;28;20021;-83
2024/01/26 07:02:35;;;;;;;15.43;10.03;;;10.40;99.90;;;;;;5012236;28;20076;-83
2024/01/26 07:05:00;;;;;;;18.30;11.10;;;10.40;99.90;;;;;;5012234;28;20454;-83
2024/01/26 07:07:26;;;;;;;17.48;10.85;;;10.40;99.90;;;;;;5012055;28;20027;-81
2024/01/26 07:09:52;;;;;;;16.77;9.38;;;10.40;99.90;;;;;;5015096;28;20379;-82
2024/01/26 07:12:17;;;;;;;15.88;9.85;;;10.40;99.90;;;;;;5013579;28;20377;-80
2024/01/26 07:14:43;;;;;;;17.20;10.30;;;10.40;99.90;;;;;;5019376;28;20025;-81
2024/01/26 07:17:08;;;;;;;19.38;10.85;;;10.40;99.90;;;;;;5031515;28;20021;-82
2024/01/26 07:19:34;;;;;;;18.93;11.37;;;10.40;99.90;;;;;;5020564;28;20501;-82
2024/01/26 07:22:00;;;;;;;15.60;10.18;;;10.40;99.90;;;;;;5012810;28;20058;-80
2024/01/26 07:24:25;;;;;;;17.48;10.52;;;10.40;99.90;;;;;;5028108;28;20023;-80
2024/01/26 07:26:52;;;;;;;18.67;11.73;;;10.40;99.90;;;;;;5012850;28;20029;-81
2024/01/26 07:29:18;;;;;;;17.97;10.67;;;10.40;99.90;;;;;;5011317;28;20454;-82
2024/01/26 07:31:46;;;;;;;19.48;12.13;;;10.40;99.90;;;;;;5013131;28;20046;-80
2024/01/26 07:34:13;;;;;;;15.60;10.18;;;10.40;99.90;;;;;;5013163;28;20071;-82
2024/01/26 07:36:39;;;;;;;20.92;11.05;;;10.40;99.90;;;;;;5012986;28;20083;-82
2024/01/26 07:39:05;;;;;;;21.92;11.98;;;10.40;99.90;;;;;;5011658;28;20508;-82
2024/01/26 07:41:31;;;;;;;17.00;11.43;;;10.50;99.90;;;;;;5013387;28;20421;-83
2024/01/26 07:43:57;;;;;;;17.20;11.10;;;10.50;99.90;;;;;;5028679;28;20033;-82
2024/01/26 07:46:22;;;;;;;17.80;11.20;;;10.50;99.90;;;;;;5011596;28;20026;-82
2024/01/26 07:48:48;;;;;;;15.93;10.85;;;10.50;99.90;;;;;;5012885;28;20041;-82
2024/01/26 07:51:14;;;;;;;15.82;10.05;;;10.50;99.90;;;;;;5013015;28;20109;-82
2024/01/26 07:53:39;;;;;;;18.13;11.27;;;10.50;99.90;;;;;;5013043;28;20064;-82
2024/01/26 07:56:06;;;;;;;20.42;12.05;;;10.50;99.90;;;;;;5013198;28;20442;-82
2024/01/26 07:58:32;;;;;;;18.80;11.90;;;10.60;99.90;;;;;;5013067;28;20037;-82
2024/01/26 08:00:58;;;;;;;21.20;12.18;;;10.60;99.90;;;;;;5027892;28;20478;-83
2024/01/26 08:03:23;;;;;;;22.00;13.75;;;10.60;99.90;;;;;;5011647;28;20026;-82
2024/01/26 08:05:49;;;;;;;23.17;14.65;;;10.60;99.90;;;;;;5012940;28;20026;-84
2024/01/26 08:08:16;;;;;;;22.87;14.67;;;10.70;99.90;;;;;;5012634;28;20030;-81
2024/01/26 08:10:42;;;;;;;23.70;15.48;;;10.70;99.90;;;;;;5013302;28;20108;-81
2024/01/26 08:13:07;;;;;;;24.00;14.65;;;10.70;99.90;;;;;;5012680;28;20552;-82
2024/01/26 08:15:33;;;;;;;24.30;15.10;;;10.70;99.90;;;;;;5012808;28;20026;-81
2024/01/26 08:17:58;;;;;;;26.75;15.20;;;10.70;99.90;;;;;;5013047;28;20022;-81
2024/01/26 08:20:24;;;;;;;25.77;16.67;;;10.70;99.90;;;;;;5012863;28;20025;-82
2024/01/26 08:22:50;;;;;;;23.55;15.18;;;10.70;99.90;;;;;;5012644;28;20080;-82
2024/01/26 08:25:15;;;;;;;25.55;16.92;;;10.70;99.90;;;;;;5012617;28;20018;-81
2024/01/26 08:27:41;;;;;;;27.33;17.13;;;10.80;99.90;;;;;;5027875;28;20036;-82
2024/01/26 08:30:07;;;;;;;24.92;16.95;;;10.80;99.90;;;;;;5011338;28;20109;-85
2024/01/26 08:32:33;;;;;;;26.08;17.40;;;10.80;99.90;;;;;;5012612;28;20046;-81
2024/01/26 08:35:00;;;;;;;27.05;18.80;;;10.80;99.90;;;;;;5012652;28;20033;-81
2024/01/26 08:37:25;;;;;;;29.40;18.08;;;10.90;99.90;;;;;;5011031;28;20432;-83
2024/01/26 08:39:51;;;;;;;28.17;18.92;;;10.90;99.90;;;;;;5012581;28;20022;-81
2024/01/26 08:42:16;;;;;;;28.33;18.30;;;10.90;99.90;;;;;;5016323;28;20172;-82
2024/01/26 08:44:42;;;;;;;28.38;18.67;;;10.90;99.90;;;;;;5016369;28;20026;-82
2024/01/26 08:47:08;;;;;;;26.38;17.63;;;10.90;99.90;;;;;;5015544;28;20026;-82
2024/01/26 08:49:34;;;;;;;30.40;19.67;;;11.00;99.90;;;;;;5015956;28;20036;-84
2024/01/26 08:51:59;;;;;;;29.08;20.23;;;11.00;99.90;;;;;;5015951;28;20108;-82
2024/01/26 08:54:25;;;;;;;29.67;19.05;;;11.00;99.90;;;;;;5014624;28;20547;-82
2024/01/26 08:56:51;;;;;;;33.10;20.02;;;11.00;99.90;;;;;;5015649;28;20124;-83
2024/01/26 08:59:16;;;;;;;29.67;19.58;;;11.00;99.90;;;;;;5016079;28;20092;-82
2024/01/26 09:01:42;;;;;;;31.85;18.67;;;11.00;99.90;;;;;;5016164;28;20140;-82
2024/01/26 09:04:08;;;;;;;27.90;18.67;;;11.00;99.90;;;;;;5015005;28;20022;-81
2024/01/26 09:06:37;;;;;;;29.85;18.10;;;11.00;99.90;;;;;;5016919;28;20065;-80
2024/01/26 09:09:03;;;;;;;37.17;19.48;;;11.00;99.90;;;;;;5015625;28;20033;-80
2024/01/26 09:11:29;;;;;;;25.73;15.07;;;11.00;99.90;;;;;;5017219;28;20030;-80
2024/01/26 09:13:56;;;;;;;20.60;12.40;;;11.00;99.90;;;;;;5015674;28;20026;-81
2024/01/26 09:16:22;;;;;;;24.55;13.15;;;11.10;99.90;;;;;;5015792;28;20397;-81
2024/01/26 09:18:48;;;;;;;19.42;11.65;;;11.00;99.90;;;;;;5015644;28;20037;-84
2024/01/26 09:21:13;;;;;;;25.15;12.20;;;11.00;99.90;;;;;;5014027;28;20498;-82
2024/01/26 09:23:39;;;;;;;16.95;10.43;;;11.00;99.90;;;;;;5015363;28;20474;-82
2024/01/26 09:26:05;;;;;;;20.02;9.35;;;11.00;99.90;;;;;;5015500;28;20101;-83
2024/01/26 09:28:31;;;;;;;19.63;8.30;;;11.00;99.90;;;;;;5015439;28;20108;-82
2024/01/26 09:30:57;;;;;;;21.45;10.05;;;11.00;99.90;;;;;;5013938;28;20051;-81
2024/01/26 09:33:22;;;;;;;17.48;6.22;;;10.90;99.90;;;;;;5015206;28;20129;-81
2024/01/26 09:35:48;;;;;;;8.45;1.98;;;10.90;99.90;;;;;;5015277;28;20045;-82
2024/01/26 09:38:14;;;;;;;9.05;2.05;;;10.80;99.90;;;;;;5015496;28;20026;-82
2024/01/26 09:40:41;;;;;;;10.43;1.90;;;10.60;99.90;;;;;;5015032;28;20026;-86
2024/01/26 09:43:07;;;;;;;18.48;1.92;;;10.50;99.90;;;;;;5015166;28;20033;-81
2024/01/26 09:45:33;;;;;;;10.68;1.77;;;10.40;99.90;;;;;;5013769;28;20358;-80
2024/01/26 09:47:59;;;;;;;17.03;1.90;;;10.20;99.90;;;;;;5013328;28;20116;-81
2024/01/26 09:50:26;;;;;;;10.53;1.67;;;10.10;99.90;;;;;;5013181;28;20064;-82
2024/01/26 09:52:52;;;;;;;16.47;1.47;;;10.00;99.90;;;;;;5013472;28;20053;-83
2024/01/26 09:55:19;;;;;;;12.02;1.27;;;10.00;99.90;;;;;;5014905;28;20028;-80
2024/01/26 09:57:47;;;;;;;8.55;0.73;;;9.90;99.90;;;;;;5014625;28;20029;-83
2024/01/26 10:00:14;;;;;;;7.65;0.52;;;9.70;99.90;;;;;;5014794;28;20037;-81
2024/01/26 10:02:42;;;;;;;8.03;0.70;;;9.60;99.90;;;;;;5013452;28;20490;-82
2024/01/26 10:05:08;;;;;;;7.90;0.90;;;9.40;99.90;;;;;;5014227;28;20477;-81
2024/01/26 10:07:34;;;;;;;7.10;0.80;;;9.10;99.90;;;;;;5014645;28;20018;-82
2024/01/26 10:09:59;;;;;;;6.63;0.80;;;8.90;99.90;;;;;;5014799;28;20068;-81
2024/01/26 10:12:25;;;;;;;9.63;0.80;;;8.90;99.90;;;;;;5013181;28;20109;-80
2024/01/26 10:15:02;;;;;;;9.07;0.57;;;8.80;99.90;;;;;;5014383;28;20022;-84
2024/01/26 10:17:28;;;;;;;7.43;0.67;;;8.70;99.90;;;;;;5029880;28;20385;-81
2024/01/26 10:20:04;;;;;;;9.00;1.10;;;8.60;99.90;;;;;;5014799;28;20105;-82
2024/01/26 10:22:30;;;;;;;3.93;0.50;;;8.60;99.90;;;;;;5014358;28;20061;-83
2024/01/26 10:24:55;;;;;;;4.03;0.53;;;8.60;99.90;;;;;;5014237;28;20451;-80
2024/01/26 10:27:21;;;;;;;2.93;0.77;;;8.60;99.90;;;;;;5013988;28;20041;-83
2024/01/26 10:29:46;;;;;;;6.03;0.73;;;8.60;99.90;;;;;;5014321;28;20026;-82
2024/01/26 10:32:13;;;;;;;13.23;2.20;;;8.60;99.90;;;;;;5014086;28;20141;-84
2024/01/26 10:34:41;;;;;;;7.20;1.10;;;8.70;99.90;;;;;;5029124;28;20030;-81
2024/01/26 10:37:10;;;;;;;8.97;1.30;;;8.70;99.90;;;;;;5012941;28;20021;-81
2024/01/26 10:39:38;;;;;;;8.23;1.20;;;8.80;99.90;;;;;;5014043;28;20026;-81
2024/01/26 10:42:04;;;;;;;12.85;2.13;;;9.00;99.90;;;;;;5014012;28;20058;-82
2024/01/26 10:44:33;;;;;;;13.10;1.27;;;9.40;99.90;;;;;;5014103;28;20475;-81
2024/01/26 10:47:01;;;;;;;12.63;1.10;;;9.80;99.90;;;;;;5028555;28;20045;-83
2024/01/26 10:49:27;;;;;;;11.70;1.48;;;10.10;99.90;;;;;;5014452;28;20029;-80
2024/01/26 10:51:56;;;;;;;8.57;1.30;;;10.40;99.90;;;;;;5024235;28;20021;-80
2024/01/26 10:54:25;;;;;;;9.98;1.38;;;10.60;99.90;;;;;;5032040;28;20065;-81
2024/01/26 10:56:51;;;;;;;9.77;1.13;;;10.70;99.90;;;;;;5033681;28;20100;-82
2024/01/26 10:59:17;;;;;;;7.55;0.80;;;10.80;99.90;;;;;;5032179;28;20109;-82
2024/01/26 11:01:44;;;;;;;9.65;1.10;;;10.70;99.90;;;;;;5032968;28;20014;-82
2024/01/26 11:04:12;;;;;;;8.38;0.90;;;10.70;99.80;;;;;;5031733;28;20025;-83
2024/01/26 11:06:39;;;;;;;11.25;1.77;;;10.70;99.90;;;;;;5032877;28;20060;-84
2024/01/26 11:09:08;;;;;;;9.07;1.05;;;10.70;99.90;;;;;;5033335;28;20072;-83
2024/01/26 11:11:36;;;;;;;11.50;1.38;;;10.80;97.00;;;;;;5032055;28;20052;-84
2024/01/26 11:14:03;;;;;;;8.57;0.60;;;10.90;97.00;;;;;;5031992;28;20083;-82
2024/01/26 11:16:33;;;;;;;9.23;1.08;;;11.00;97.10;;;;;;5033069;28;20029;-84
2024/01/26 11:18:59;;;;;;;11.23;1.20;;;11.00;95.50;;;;;;5033067;28;20481;-83
2024/01/26 11:21:35;;;;;;;9.60;0.90;;;10.90;93.40;;;;;;5032037;28;20032;-81
2024/01/26 11:24:19;;;;;;;7.45;1.00;;;10.80;92.20;;;;;;5031758;28;20048;-81
2024/01/26 11:26:58;;;;;;;7.32;1.00;;;10.60;91.10;;;;;;5033058;28;20029;-83
2024/01/26 11:29:34;;;;;;;9.93;1.00;;;10.60;91.80;;;;;;5032689;28;20067;-86
2024/01/26 11:32:00;;;;;;;12.98;1.38;;;10.60;91.70;;;;;;5032737;28;20098;-82
2024/01/26 11:34:26;;;;;;;10.73;1.33;;;10.70;92.50;;;;;;5033404;28;20018;-82
2024/01/26 11:37:14;;;;;;;6.10;0.98;;;10.90;91.20;;;;;;5032959;28;20029;-83
2024/01/26 11:39:41;;;;;;;8.35;1.00;;;10.90;90.10;;;;;;5032792;28;20030;-82
2024/01/26 11:42:11;;;;;;;7.78;1.13;;;10.90;87.00;;;;;;5033085;28;20025;-82
2024/01/26 11:45:05;;;;;;;11.52;1.30;;;10.90;86.20;;;;;;5033050;28;20033;-81
2024/01/26 11:47:31;;;;;;;14.57;1.10;;;10.90;87.40;;;;;;5032307;28;20022;-83
2024/01/26 11:49:57;;;;;;;7.57;0.90;;;11.00;84.50;;;;;;5031545;28;20075;-82
2024/01/26 11:52:23;;;;;;;8.88;1.27;;;11.10;83.60;;;;;;5033069;28;20068;-84
2024/01/26 11:54:48;;;;;;;7.68;1.20;;;11.10;82.70;;;;;;5033016;28;20029;-82
2024/01/26 11:57:14;;;;;;;8.95;0.95;;;11.00;81.40;;;;;;5032874;28;20025;-83
2024/01/26 11:59:40;;;;;;;12.43;1.55;;;10.90;81.50;;;;;;5031277;28;20188;-82
2024/01/26 12:02:06;;;;;;;16.90;1.40;;;10.80;80.70;;;;;;5032482;28;20037;-81
2024/01/26 12:04:32;;;;;;;8.15;0.95;;;10.70;80.90;;;;;;5031691;28;20037;-81
2024/01/26 12:06:57;;;;;;;10.50;1.00;;;10.60;81.60;;;;;;5031439;28;20055;-83
2024/01/26 12:09:23;;;;;;;10.35;1.50;;;10.50;80.60;;;;;;5032309;28;20045;-83
2024/01/26 12:11:49;;;;;;;10.43;1.20;;;10.40;80.90;;;;;;5032736;28;20029;-84
2024/01/26 12:14:15;;;;;;;14.80;1.60;;;10.40;81.70;;;;;;5034390;28;20059;-81
2024/01/26 12:16:41;;;;;;;12.32;1.35;;;10.40;79.90;;;;;;5035233;28;20026;-81
2024/01/26 12:19:07;;;;;;;12.48;1.60;;;10.40;79.50;;;;;;5035015;28;20021;-81
2024/01/26 12:21:32;;;;;;;14.20;2.20;;;10.30;79.60;;;;;;5034757;28;20028;-81
2024/01/26 12:23:58;;;;;;;15.35;1.75;;;10.30;79.50;;;;;;5036405;28;20022;-82
2024/01/26 12:26:24;;;;;;;12.10;1.50;;;10.20;79.00;;;;;;5036975;28;20025;-83
2024/01/26 12:28:50;;;;;;;15.13;2.23;;;10.10;79.50;;;;;;5036275;28;20033;-85
2024/01/26 12:31:17;;;;;;;13.23;2.13;;;10.00;80.50;;;;;;5036325;28;20083;-84